Aérodrome :
LOGIN :

S'inscrire | Disclaimer

   EN    FR    IT 

 










Légende :    VFR   VFR Marginal   IFR   IFR Intensif   IFR Très Intensif
Visi : 
Plafond : 
>= 8 km
>= 3000ft
5 à 8 km
1000 à 3000 ft
1500m à 5 km
500 à 1000 ft
800 à 1500m
200 à 500 ft
< 800m
< 200 ft
Symboles :   Orages  Brouillard  Fortes neiges  Fortes précipitations  Vent > 20 kt
SIGMETs :   Divers  Orages  Givrage  Turbulence  Onde Orograph.  Cendres Volcan.






- Altitude de l'aérodrome : 1367 ft
- Code IATA : FDH


EDNY - Friedrichshafen

DERNIER METAR :
  • 291850Z 20004KT 9999 OVC025 00/M04 Q1026

METARs EXPIRÉS :
  • 291820Z VRB02KT 9999 OVC024 00/M04 Q1026
  • 291750Z VRB02KT 9999 OVC025 M00/M04 Q1026
  • 291720Z 00000KT 9999 OVC026 M00/M04 Q1026
  • 291650Z VRB02KT 9999 BKN026 M00/M04 Q1026
  • 291620Z 31003KT 270V340 9999 BKN026 00/M05 Q1026

TAF TAF EDNY
Valide du 29 à 18h jusqu'au 30 à 18h UTC


291700Z 2918/3018 VRB02KT 9999 BKN025
BECMG 3006/3008 23008KT



MET'MAP, la Météo Aéronautique d'un coup d'oeil ! - Copyright ORBIFLY Décembre 2007 - Disclaimer

ORBIFLY MET'MAP TEAM :

Programmation & Développement : Alexandra Zaïnal
Sur une idée originale de : Baudouin d'Aumeries
Soutien technique & logistique : Manuel Goepfert
Assistance : Marc-Olivier Méhu




SOURCES & CREDITS :

   NOAA